Time;durP1;ratioP1;P1;durP2;ratioP2;P2;SDS_P1;SDS_P2;PMS_P1;PMS_P2;Temp;Humidity;BMP_temperature;BMP_pressure;BME280_temperature;BME280_humidity;BME280_pressure;Samples;Min_cycle;Max_cycle;Signal;HPM_P1;HPM_P2
2023/11/02 00:01:38;;;;;;;3.30;2.90;;;11.40;99.90;;;;;;5057680;28;20409;-63
2023/11/02 00:04:04;;;;;;;4.53;3.10;;;11.40;99.90;;;;;;5039636;28;20994;-63
2023/11/02 00:06:35;;;;;;;3.50;3.20;;;11.40;99.90;;;;;;5053891;28;20202;-63
2023/11/02 00:09:06;;;;;;;4.13;3.73;;;11.40;99.90;;;;;;5056503;28;20173;-64
2023/11/02 00:11:55;;;;;;;4.93;4.10;;;11.30;99.90;;;;;;5072577;28;20408;-64
2023/11/02 00:14:22;;;;;;;3.93;3.30;;;11.30;99.90;;;;;;5072931;28;20423;-64
2023/11/02 00:16:48;;;;;;;3.93;3.10;;;11.30;99.90;;;;;;5058369;28;20477;-64
2023/11/02 00:19:30;;;;;;;3.90;3.07;;;11.30;99.90;;;;;;5052832;28;20785;-63
2023/11/02 00:21:57;;;;;;;3.17;2.87;;;11.30;99.90;;;;;;5052564;28;20501;-65
2023/11/02 00:24:23;;;;;;;3.80;3.23;;;11.40;99.90;;;;;;5052171;28;20410;-64
2023/11/02 00:26:49;;;;;;;3.37;2.80;;;11.50;99.90;;;;;;5050727;28;20599;-63
2023/11/02 00:29:14;;;;;;;6.43;3.60;;;11.50;99.90;;;;;;5069188;28;20174;-63
2023/11/02 00:31:40;;;;;;;5.47;3.20;;;11.50;99.90;;;;;;5072585;28;20664;-62
2023/11/02 00:34:07;;;;;;;4.27;2.60;;;11.50;99.90;;;;;;5072642;28;20178;-62
2023/11/02 00:36:33;;;;;;;6.47;4.13;;;11.50;99.90;;;;;;5072250;28;20676;-63
2023/11/02 00:38:58;;;;;;;4.97;3.30;;;11.50;99.90;;;;;;5072560;28;20414;-63
2023/11/02 00:41:24;;;;;;;4.03;2.87;;;11.50;99.90;;;;;;5072335;28;20174;-62
2023/11/02 00:43:50;;;;;;;5.73;2.93;;;11.50;99.90;;;;;;5072252;28;20174;-62
2023/11/02 00:46:16;;;;;;;2.97;2.70;;;11.40;99.90;;;;;;5050879;28;20680;-65
2023/11/02 00:48:43;;;;;;;2.70;2.50;;;11.40;99.90;;;;;;5052068;28;20257;-62
2023/11/02 00:51:19;;;;;;;5.30;2.70;;;11.30;99.90;;;;;;5049406;28;20437;-63
2023/11/02 00:53:48;;;;;;;4.20;2.50;;;11.30;99.90;;;;;;5051912;28;20457;-64
2023/11/02 00:56:16;;;;;;;3.10;2.50;;;11.30;99.90;;;;;;5051988;28;20477;-65
2023/11/02 00:58:47;;;;;;;4.13;2.73;;;11.30;99.90;;;;;;5051975;28;20417;-65
2023/11/02 01:01:15;;;;;;;2.80;2.37;;;11.20;99.90;;;;;;5051836;28;20412;-63
2023/11/02 01:03:46;;;;;;;5.33;2.53;;;11.20;99.90;;;;;;5071840;28;20457;-66
2023/11/02 01:06:16;;;;;;;5.67;2.87;;;11.10;99.90;;;;;;5055458;28;20469;-65
2023/11/02 01:08:42;;;;;;;3.50;2.37;;;11.10;99.90;;;;;;5050379;28;20507;-63
2023/11/02 01:11:12;;;;;;;4.20;2.50;;;11.10;99.90;;;;;;5051798;28;20421;-62
2023/11/02 01:13:40;;;;;;;3.33;2.60;;;11.10;99.90;;;;;;5051509;28;20844;-64
2023/11/02 01:16:09;;;;;;;2.73;2.20;;;11.10;99.90;;;;;;5051518;28;20467;-64
2023/11/02 01:18:35;;;;;;;2.77;1.93;;;11.00;99.90;;;;;;5051492;28;20501;-62
2023/11/02 01:21:06;;;;;;;3.57;2.60;;;11.00;99.90;;;;;;5051747;28;20466;-63
2023/11/02 01:23:32;;;;;;;6.17;2.90;;;11.00;99.90;;;;;;5051532;28;20943;-64
2023/11/02 01:26:01;;;;;;;3.47;2.50;;;11.00;99.90;;;;;;5049514;28;20455;-64
2023/11/02 01:28:48;;;;;;;2.70;2.50;;;11.00;99.90;;;;;;5051409;28;20450;-63
2023/11/02 01:31:19;;;;;;;2.40;1.93;;;11.00;99.90;;;;;;5051494;28;20891;-64
2023/11/02 01:33:59;;;;;;;2.23;2.00;;;11.00;99.90;;;;;;5051386;28;20464;-64
2023/11/02 01:36:33;;;;;;;3.27;2.97;;;11.00;99.90;;;;;;5051385;28;20437;-64
2023/11/02 01:39:09;;;;;;;3.50;2.00;;;11.00;99.90;;;;;;5051545;28;20487;-64
2023/11/02 01:41:53;;;;;;;3.20;2.30;;;11.00;99.90;;;;;;5049865;28;20474;-63
2023/11/02 01:44:32;;;;;;;4.60;2.73;;;10.90;99.90;;;;;;5047320;28;20417;-64
2023/11/02 01:47:02;;;;;;;2.50;2.17;;;10.90;99.90;;;;;;5051456;28;20463;-63
2023/11/02 01:49:37;;;;;;;6.90;2.10;;;10.90;99.90;;;;;;5051295;28;20916;-64
2023/11/02 01:52:02;;;;;;;2.87;1.90;;;10.90;99.90;;;;;;5051127;28;20551;-64
2023/11/02 01:54:46;;;;;;;3.03;2.40;;;10.90;99.90;;;;;;5051297;28;20516;-62
2023/11/02 01:57:37;;;;;;;2.93;2.63;;;10.80;99.90;;;;;;5055295;28;20198;-62
2023/11/02 02:00:04;;;;;;;3.47;2.20;;;10.80;99.90;;;;;;5045176;28;20422;-63
2023/11/02 02:02:41;;;;;;;2.53;2.33;;;10.80;99.90;;;;;;5055593;28;20487;-61
2023/11/02 02:05:21;;;;;;;10.33;2.23;;;10.80;99.90;;;;;;5055107;28;20995;-61
2023/11/02 02:07:59;;;;;;;2.50;2.30;;;10.80;99.90;;;;;;5054024;28;20460;-64
2023/11/02 02:11:12;;;;;;;5.10;2.50;;;10.80;99.90;;;;;;5055327;28;20511;-65
2023/11/02 02:13:55;;;;;;;8.20;2.43;;;10.80;99.90;;;;;;5054340;28;20468;-65
2023/11/02 02:17:03;;;;;;;4.13;2.33;;;10.80;99.90;;;;;;5042571;28;20537;-64
2023/11/02 02:19:54;;;;;;;2.93;2.10;;;10.80;99.90;;;;;;5040071;28;20482;-64
2023/11/02 02:22:52;;;;;;;6.50;2.60;;;10.90;99.90;;;;;;5074908;28;20873;-64
2023/11/02 02:25:27;;;;;;;2.70;2.50;;;10.80;99.90;;;;;;5057586;28;20417;-64
2023/11/02 02:28:46;;;;;;;3.73;2.00;;;10.90;99.90;;;;;;5052641;28;20474;-64
2023/11/02 02:31:49;;;;;;;3.03;2.40;;;10.90;99.90;;;;;;4973905;28;20495;-63
2023/11/02 02:34:40;;;;;;;8.20;2.43;;;10.90;99.90;;;;;;5052737;28;20441;-64
2023/11/02 02:37:24;;;;;;;5.00;2.20;;;10.90;99.90;;;;;;5068548;28;20424;-65
2023/11/02 02:39:54;;;;;;;3.70;2.33;;;10.90;99.90;;;;;;5074723;28;20401;-64
2023/11/02 02:42:23;;;;;;;5.30;3.20;;;11.00;99.90;;;;;;5067924;28;20425;-65
2023/11/02 02:44:51;;;;;;;3.10;2.03;;;11.00;99.90;;;;;;5054465;28;20416;-65
2023/11/02 02:47:19;;;;;;;2.30;2.10;;;11.00;99.90;;;;;;5054247;28;20767;-65
2023/11/02 02:49:51;;;;;;;2.57;1.73;;;11.00;99.90;;;;;;5054137;28;20421;-65
2023/11/02 02:52:22;;;;;;;3.10;2.80;;;11.00;99.90;;;;;;5049529;28;20457;-65
2023/11/02 02:54:52;;;;;;;2.63;1.87;;;11.00;99.90;;;;;;5054221;28;20429;-65
2023/11/02 02:57:19;;;;;;;3.60;2.03;;;11.00;99.90;;;;;;5054084;28;20436;-65
2023/11/02 02:59:53;;;;;;;2.57;2.37;;;11.00;99.90;;;;;;5051343;28;20428;-65
2023/11/02 03:02:24;;;;;;;2.77;1.90;;;10.90;99.90;;;;;;5049397;28;20904;-65
2023/11/02 03:04:51;;;;;;;2.40;1.93;;;10.90;99.90;;;;;;5053872;28;20447;-65
2023/11/02 03:07:17;;;;;;;2.10;1.67;;;10.90;99.90;;;;;;5050930;28;20437;-65
2023/11/02 03:09:52;;;;;;;2.10;1.67;;;10.90;99.90;;;;;;5053052;28;20448;-65
2023/11/02 03:12:25;;;;;;;2.73;1.90;;;10.80;99.90;;;;;;5048315;28;20456;-65
2023/11/02 03:14:54;;;;;;;2.27;1.83;;;10.80;99.90;;;;;;5053705;28;20512;-65
2023/11/02 03:17:55;;;;;;;1.63;1.47;;;10.70;99.90;;;;;;5053054;28;20445;-65
2023/11/02 03:20:21;;;;;;;3.03;1.83;;;10.70;99.90;;;;;;5052862;28;20424;-65
2023/11/02 03:22:47;;;;;;;1.90;1.70;;;10.70;99.90;;;;;;5053223;28;20413;-64
2023/11/02 03:25:39;;;;;;;3.33;1.90;;;10.60;99.90;;;;;;5050505;28;20845;-64
2023/11/02 03:28:19;;;;;;;5.83;1.70;;;10.60;99.90;;;;;;5048623;28;20557;-65
2023/11/02 03:31:14;;;;;;;3.40;2.27;;;10.50;99.90;;;;;;5051585;28;20416;-65
2023/11/02 03:34:15;;;;;;;3.50;2.30;;;10.50;99.90;;;;;;5053475;28;20479;-64
2023/11/02 03:37:02;;;;;;;4.77;2.43;;;10.40;99.90;;;;;;4984638;28;20449;-65
2023/11/02 03:39:30;;;;;;;3.87;2.00;;;10.40;99.90;;;;;;5050898;28;20823;-64
2023/11/02 03:42:14;;;;;;;6.20;2.17;;;10.40;99.90;;;;;;5051823;28;20426;-64
2023/11/02 03:45:09;;;;;;;8.30;2.77;;;10.30;99.90;;;;;;5052833;28;20904;-64
2023/11/02 03:47:59;;;;;;;3.43;1.83;;;10.30;99.90;;;;;;5034371;28;20420;-67
2023/11/02 03:50:37;;;;;;;2.93;2.00;;;10.20;99.90;;;;;;5053324;28;20958;-66
2023/11/02 03:53:09;;;;;;;2.70;2.30;;;10.10;99.90;;;;;;5052673;28;20453;-66
2023/11/02 03:55:56;;;;;;;2.33;1.70;;;10.10;99.90;;;;;;5052508;28;20433;-64
2023/11/02 03:58:58;;;;;;;3.60;1.97;;;10.10;99.90;;;;;;5043535;28;20433;-64
2023/11/02 04:01:48;;;;;;;3.77;1.83;;;10.10;99.90;;;;;;5055991;28;20456;-64
2023/11/02 04:04:47;;;;;;;2.50;2.30;;;10.00;99.90;;;;;;5048994;28;20432;-64
2023/11/02 04:07:42;;;;;;;2.03;1.83;;;9.90;99.90;;;;;;5062840;28;20491;-64
2023/11/02 04:10:11;;;;;;;3.60;2.27;;;9.90;99.90;;;;;;5034633;28;20425;-63
2023/11/02 04:13:02;;;;;;;2.30;2.10;;;9.90;99.90;;;;;;5052362;28;20461;-64
2023/11/02 04:15:28;;;;;;;2.27;1.90;;;9.80;99.90;;;;;;5051026;28;20517;-63
2023/11/02 04:17:53;;;;;;;3.13;2.07;;;9.80;99.90;;;;;;5047206;28;20417;-62
2023/11/02 04:20:19;;;;;;;2.27;2.07;;;9.80;99.90;;;;;;5050966;28;20185;-63
2023/11/02 04:22:45;;;;;;;1.90;1.70;;;9.80;99.90;;;;;;5052571;28;20179;-64
2023/11/02 04:25:11;;;;;;;3.57;1.90;;;9.80;99.90;;;;;;5052177;28;20182;-64
2023/11/02 04:27:37;;;;;;;2.13;1.93;;;9.90;99.90;;;;;;5052334;28;20271;-64
2023/11/02 04:30:03;;;;;;;4.27;2.00;;;9.90;99.90;;;;;;5052768;28;20779;-64
2023/11/02 04:32:28;;;;;;;1.97;1.77;;;9.80;99.90;;;;;;5050117;28;20822;-64
2023/11/02 04:34:56;;;;;;;1.97;1.40;;;9.80;99.90;;;;;;5034071;28;20434;-64
2023/11/02 04:37:21;;;;;;;3.10;2.07;;;9.90;99.90;;;;;;5051251;28;20765;-64
2023/11/02 04:39:48;;;;;;;3.30;2.00;;;9.90;99.90;;;;;;5052105;28;20407;-64
2023/11/02 04:42:17;;;;;;;2.30;1.60;;;9.90;99.90;;;;;;5052019;28;20171;-63
2023/11/02 04:44:43;;;;;;;2.80;1.50;;;9.80;99.90;;;;;;5045324;28;20856;-64
2023/11/02 04:47:09;;;;;;;3.40;2.50;;;9.80;99.90;;;;;;5054182;28;20473;-64
2023/11/02 04:49:35;;;;;;;5.23;1.90;;;9.70;99.90;;;;;;5050200;28;20465;-64
2023/11/02 04:52:02;;;;;;;3.20;2.60;;;9.70;99.90;;;;;;5051578;28;20671;-64
2023/11/02 04:54:30;;;;;;;2.20;1.60;;;9.60;99.90;;;;;;5066124;28;20281;-64
2023/11/02 04:56:55;;;;;;;5.17;1.90;;;9.50;99.90;;;;;;5057613;28;20490;-64
2023/11/02 04:59:22;;;;;;;3.67;2.00;;;9.50;99.90;;;;;;5051911;28;20416;-64
2023/11/02 05:01:48;;;;;;;4.03;2.20;;;9.50;99.90;;;;;;5049855;28;20632;-64
2023/11/02 05:04:14;;;;;;;3.40;2.00;;;9.50;99.90;;;;;;5054026;28;20424;-64
2023/11/02 05:06:40;;;;;;;3.63;2.03;;;9.50;99.90;;;;;;5049954;28;20545;-64
2023/11/02 05:09:06;;;;;;;2.53;1.97;;;9.40;99.90;;;;;;5051689;28;20826;-65
2023/11/02 05:11:32;;;;;;;5.97;2.10;;;9.40;99.90;;;;;;5051628;28;20417;-66
2023/11/02 05:13:58;;;;;;;2.60;1.67;;;9.40;99.90;;;;;;5051620;28;20279;-65
2023/11/02 05:16:23;;;;;;;4.10;1.63;;;9.40;99.90;;;;;;5050653;28;20944;-66
2023/11/02 05:18:49;;;;;;;2.03;1.67;;;9.30;99.90;;;;;;5046603;28;20177;-65
2023/11/02 05:21:15;;;;;;;4.20;2.53;;;9.30;99.90;;;;;;5052555;28;20174;-66
2023/11/02 05:23:41;;;;;;;2.33;2.20;;;9.20;99.90;;;;;;5051127;28;20874;-65
2023/11/02 05:26:07;;;;;;;3.23;2.60;;;9.30;99.90;;;;;;5051763;28;20469;-65
2023/11/02 05:28:32;;;;;;;2.63;1.80;;;9.30;99.90;;;;;;5034491;28;20201;-65
2023/11/02 05:30:58;;;;;;;3.20;2.33;;;9.30;99.90;;;;;;5049944;28;21903;-62
2023/11/02 05:33:24;;;;;;;4.57;3.37;;;9.30;99.90;;;;;;5050438;28;20209;-63
2023/11/02 05:35:49;;;;;;;7.70;2.10;;;9.30;99.90;;;;;;5046317;28;20233;-63
2023/11/02 05:38:15;;;;;;;3.10;2.50;;;9.30;99.90;;;;;;5055708;28;20432;-63
2023/11/02 05:40:45;;;;;;;3.33;1.93;;;9.30;99.90;;;;;;5051337;28;20171;-63
2023/11/02 05:43:11;;;;;;;3.03;2.27;;;9.30;99.90;;;;;;5051409;28;20470;-68
2023/11/02 05:45:37;;;;;;;3.37;3.07;;;9.30;99.90;;;;;;5050518;28;20440;-63
2023/11/02 05:48:03;;;;;;;3.17;2.87;;;9.30;99.90;;;;;;5051372;28;20409;-64
2023/11/02 05:50:28;;;;;;;2.70;2.27;;;9.40;99.90;;;;;;5051551;28;20536;-65
2023/11/02 05:52:54;;;;;;;3.20;1.80;;;9.40;99.90;;;;;;5045152;28;20200;-65
2023/11/02 05:55:20;;;;;;;2.30;1.87;;;9.40;99.90;;;;;;5050519;28;20275;-64
2023/11/02 05:57:46;;;;;;;3.77;2.37;;;9.30;99.90;;;;;;5051360;28;20174;-65
2023/11/02 06:00:13;;;;;;;2.43;1.93;;;9.30;99.90;;;;;;5053487;28;20435;-65
2023/11/02 06:02:39;;;;;;;3.67;2.30;;;9.30;99.90;;;;;;5049691;28;20440;-65
2023/11/02 06:05:08;;;;;;;2.43;2.20;;;9.30;99.90;;;;;;5050600;28;20437;-65
2023/11/02 06:07:34;;;;;;;4.67;2.20;;;9.30;99.90;;;;;;5047040;28;20179;-65
2023/11/02 06:10:00;;;;;;;3.03;2.37;;;9.30;99.90;;;;;;5047026;28;20461;-64
2023/11/02 06:12:27;;;;;;;8.40;2.67;;;9.30;99.90;;;;;;5052331;28;20453;-64
2023/11/02 06:14:53;;;;;;;4.60;1.80;;;9.40;99.90;;;;;;5051268;28;20433;-65
2023/11/02 06:17:19;;;;;;;3.13;2.20;;;9.40;99.90;;;;;;5064158;28;20700;-65
2023/11/02 06:19:44;;;;;;;4.33;2.20;;;9.50;99.90;;;;;;5057887;28;20584;-65
2023/11/02 06:22:11;;;;;;;3.37;2.50;;;9.50;99.90;;;;;;5050235;28;20226;-65
2023/11/02 06:24:37;;;;;;;2.30;1.90;;;9.50;99.90;;;;;;5050743;28;20413;-65
2023/11/02 06:27:04;;;;;;;4.00;2.00;;;9.60;99.90;;;;;;5050119;28;20444;-65
2023/11/02 06:29:29;;;;;;;2.53;1.97;;;9.60;99.90;;;;;;5062455;28;20424;-64
2023/11/02 06:31:55;;;;;;;9.93;2.37;;;9.60;99.90;;;;;;5054007;28;20783;-65
2023/11/02 06:34:20;;;;;;;6.63;2.20;;;9.70;99.90;;;;;;5051025;28;20658;-65
2023/11/02 06:36:46;;;;;;;3.10;2.37;;;9.70;99.90;;;;;;5030957;28;20274;-65
2023/11/02 06:39:16;;;;;;;12.33;3.37;;;10.00;99.90;;;;;;5051067;28;20243;-63
2023/11/02 06:41:42;;;;;;;4.07;3.07;;;10.10;99.90;;;;;;5051710;28;20164;-64
2023/11/02 06:44:08;;;;;;;3.03;2.10;;;10.10;99.90;;;;;;5051984;28;20981;-64
2023/11/02 06:46:33;;;;;;;5.57;2.10;;;10.20;99.90;;;;;;5055063;28;20203;-64
2023/11/02 06:48:59;;;;;;;4.43;2.40;;;10.30;99.90;;;;;;5054220;28;20187;-64
2023/11/02 06:51:25;;;;;;;4.93;2.23;;;10.30;99.90;;;;;;5034399;28;20329;-64
2023/11/02 06:53:51;;;;;;;3.73;2.57;;;10.20;99.90;;;;;;5053959;28;20281;-65
2023/11/02 06:56:17;;;;;;;24.33;15.10;;;10.10;99.90;;;;;;5054014;28;21000;-64
2023/11/02 06:58:43;;;;;;;45.37;25.23;;;10.50;99.90;;;;;;5050077;28;20313;-63
2023/11/02 07:01:09;;;;;;;23.17;13.80;;;10.70;99.90;;;;;;5055081;28;20508;-63
2023/11/02 07:03:34;;;;;;;22.53;14.33;;;10.70;99.90;;;;;;5054012;28;20183;-65
2023/11/02 07:06:00;;;;;;;22.73;15.10;;;10.80;99.90;;;;;;5051757;28;20325;-64
2023/11/02 07:08:25;;;;;;;29.27;16.63;;;10.90;99.90;;;;;;5053860;28;20646;-65
2023/11/02 07:10:51;;;;;;;16.13;11.13;;;10.90;99.90;;;;;;5051102;28;20203;-64
2023/11/02 07:13:18;;;;;;;3.27;2.90;;;11.00;99.90;;;;;;5053421;28;20198;-64
2023/11/02 07:15:44;;;;;;;3.80;2.67;;;10.90;99.90;;;;;;5052460;28;20944;-65
2023/11/02 07:18:10;;;;;;;2.37;2.00;;;10.70;99.90;;;;;;5070998;28;20416;-65
2023/11/02 07:20:35;;;;;;;3.97;2.30;;;10.60;99.90;;;;;;5053242;28;20606;-65
2023/11/02 07:23:01;;;;;;;3.53;2.40;;;10.60;99.90;;;;;;5035990;28;20236;-65
2023/11/02 07:25:27;;;;;;;3.77;2.53;;;10.60;99.90;;;;;;5053602;28;20195;-65
2023/11/02 07:27:52;;;;;;;5.67;2.80;;;10.50;99.90;;;;;;5045523;28;20182;-65
2023/11/02 07:30:18;;;;;;;5.37;2.77;;;10.60;99.90;;;;;;5052669;28;20179;-67
2023/11/02 07:32:44;;;;;;;6.70;2.97;;;10.70;99.90;;;;;;5052666;28;20207;-68
2023/11/02 07:35:09;;;;;;;3.80;2.47;;;10.90;99.90;;;;;;5046779;28;20206;-65
2023/11/02 07:37:35;;;;;;;9.63;2.83;;;11.00;99.90;;;;;;5058054;28;20202;-68
2023/11/02 07:40:02;;;;;;;4.20;2.97;;;10.90;99.90;;;;;;5051763;28;20167;-66
2023/11/02 07:42:27;;;;;;;2.43;2.17;;;10.90;99.90;;;;;;5047669;28;20894;-66
2023/11/02 07:44:53;;;;;;;3.60;2.83;;;10.90;99.90;;;;;;5051365;28;20459;-66
2023/11/02 07:47:18;;;;;;;2.90;2.70;;;10.90;99.90;;;;;;5049940;28;20198;-66
2023/11/02 07:49:44;;;;;;;4.77;3.17;;;10.90;99.90;;;;;;5061440;28;20175;-64
2023/11/02 07:52:10;;;;;;;6.27;3.00;;;10.90;99.90;;;;;;5052535;28;20209;-64
2023/11/02 07:54:37;;;;;;;7.57;3.10;;;10.90;99.90;;;;;;5052603;28;20171;-63
2023/11/02 07:57:09;;;;;;;3.77;2.50;;;10.90;99.90;;;;;;5052143;28;20440;-65
2023/11/02 07:59:35;;;;;;;3.50;2.43;;;11.00;99.90;;;;;;5049999;28;20447;-65
2023/11/02 08:02:02;;;;;;;3.13;2.43;;;11.10;99.90;;;;;;5050637;28;20441;-65
2023/11/02 08:04:27;;;;;;;4.70;2.10;;;11.30;99.90;;;;;;5052424;28;20499;-64
2023/11/02 08:06:53;;;;;;;7.33;2.67;;;11.40;99.90;;;;;;5053044;28;20473;-64
2023/11/02 08:09:19;;;;;;;3.47;2.27;;;11.50;99.90;;;;;;5052530;28;20258;-65
2023/11/02 08:11:44;;;;;;;3.07;2.77;;;11.60;99.90;;;;;;5053155;28;20520;-64
2023/11/02 08:14:10;;;;;;;6.63;2.90;;;12.20;99.90;;;;;;5052399;28;20199;-64
2023/11/02 08:16:35;;;;;;;5.33;2.87;;;12.50;99.90;;;;;;5052509;28;20608;-64
2023/11/02 08:19:01;;;;;;;5.13;4.43;;;12.30;99.90;;;;;;5050830;28;20194;-63
2023/11/02 08:21:27;;;;;;;3.60;2.23;;;12.30;99.90;;;;;;5051984;28;20170;-64
2023/11/02 08:23:53;;;;;;;4.60;2.50;;;12.30;99.90;;;;;;5052386;28;20417;-64
2023/11/02 08:26:21;;;;;;;3.20;2.00;;;12.00;99.90;;;;;;5052607;28;20436;-64
2023/11/02 08:28:51;;;;;;;4.43;3.50;;;11.80;99.90;;;;;;5052433;28;20177;-63
2023/11/02 08:31:24;;;;;;;3.70;2.50;;;12.30;99.90;;;;;;5043946;28;20420;-63
2023/11/02 08:33:50;;;;;;;4.10;2.40;;;12.70;99.90;;;;;;5052745;28;20457;-63
2023/11/02 08:36:16;;;;;;;5.37;2.60;;;12.70;99.90;;;;;;5054255;28;20448;-63
2023/11/02 08:38:42;;;;;;;3.17;1.83;;;12.80;99.90;;;;;;5072439;28;20413;-64
2023/11/02 08:41:26;;;;;;;3.20;2.23;;;12.90;99.90;;;;;;5072271;28;20914;-63
2023/11/02 08:43:52;;;;;;;4.70;2.50;;;12.70;99.90;;;;;;5052672;28;20174;-63
2023/11/02 08:46:19;;;;;;;2.83;2.63;;;12.60;99.90;;;;;;5051875;28;20954;-63
2023/11/02 08:48:49;;;;;;;3.00;2.23;;;12.50;99.90;;;;;;5052293;28;20406;-65
2023/11/02 08:51:16;;;;;;;5.67;2.90;;;12.50;99.90;;;;;;5048336;28;20467;-63
2023/11/02 08:53:43;;;;;;;3.43;2.50;;;12.40;99.90;;;;;;5052550;28;20453;-64
2023/11/02 08:56:09;;;;;;;7.13;2.90;;;12.20;99.90;;;;;;5061904;28;20525;-64
2023/11/02 08:58:52;;;;;;;4.40;1.97;;;12.20;99.90;;;;;;5071927;28;20425;-64
2023/11/02 09:01:20;;;;;;;2.57;1.83;;;12.20;99.90;;;;;;5051415;28;20730;-64
2023/11/02 09:03:47;;;;;;;5.23;2.50;;;12.10;99.90;;;;;;5044893;28;20569;-64
2023/11/02 09:06:12;;;;;;;2.23;2.03;;;12.00;99.90;;;;;;5058027;28;20848;-64
2023/11/02 09:08:39;;;;;;;4.43;2.10;;;12.00;99.90;;;;;;5054327;28;20458;-64
2023/11/02 09:11:05;;;;;;;2.80;2.17;;;12.10;99.90;;;;;;5043384;28;20426;-64
2023/11/02 09:13:31;;;;;;;2.67;2.10;;;12.20;99.90;;;;;;5050087;28;20449;-64
2023/11/02 09:15:58;;;;;;;1.90;1.70;;;12.20;99.90;;;;;;5045703;28;20539;-64
2023/11/02 09:18:24;;;;;;;5.30;2.63;;;12.40;99.90;;;;;;5042321;28;20186;-64
2023/11/02 09:20:50;;;;;;;2.73;1.93;;;12.50;99.90;;;;;;5049470;28;20405;-65
2023/11/02 09:23:17;;;;;;;3.10;1.70;;;12.50;99.90;;;;;;5050804;28;20788;-64
2023/11/02 09:25:49;;;;;;;2.13;1.93;;;12.50;99.90;;;;;;5049609;28;20673;-64
2023/11/02 09:28:16;;;;;;;3.10;2.17;;;12.50;99.90;;;;;;5062653;28;20939;-64
2023/11/02 09:30:43;;;;;;;3.27;1.77;;;12.50;99.90;;;;;;5053964;28;20782;-64
2023/11/02 09:33:09;;;;;;;2.70;1.67;;;12.50;99.90;;;;;;5067132;28;20451;-64
2023/11/02 09:35:35;;;;;;;4.87;2.47;;;12.50;99.90;;;;;;5048868;28;20437;-64
2023/11/02 09:38:01;;;;;;;1.93;1.50;;;12.60;99.90;;;;;;5051458;28;20843;-64
2023/11/02 09:40:26;;;;;;;2.13;1.93;;;12.60;99.90;;;;;;5051459;28;20513;-64
2023/11/02 09:42:52;;;;;;;3.80;2.00;;;12.70;99.90;;;;;;5051707;28;20171;-62
2023/11/02 09:45:18;;;;;;;2.20;2.10;;;12.80;99.90;;;;;;5051411;28;20179;-63
2023/11/02 09:47:45;;;;;;;2.00;1.80;;;12.80;99.90;;;;;;5056809;28;20467;-65
2023/11/02 09:50:12;;;;;;;2.40;2.20;;;13.00;99.90;;;;;;5059687;28;20596;-63
2023/11/02 09:52:38;;;;;;;3.70;2.67;;;13.20;99.90;;;;;;5051314;28;20527;-63
2023/11/02 09:55:04;;;;;;;2.90;2.20;;;13.40;99.90;;;;;;5051404;28;20421;-64
2023/11/02 09:57:35;;;;;;;2.20;2.00;;;13.50;99.90;;;;;;5052625;28;20202;-63
2023/11/02 10:00:03;;;;;;;6.80;2.10;;;13.70;99.90;;;;;;5048883;28;20415;-64
2023/11/02 10:02:30;;;;;;;2.10;1.80;;;13.60;99.90;;;;;;5071172;28;20416;-64
2023/11/02 10:04:55;;;;;;;2.80;2.10;;;13.70;99.90;;;;;;5052709;28;20456;-64
2023/11/02 10:07:23;;;;;;;2.57;2.03;;;13.60;99.90;;;;;;5051031;28;20433;-64
2023/11/02 10:09:49;;;;;;;4.33;2.00;;;13.70;99.90;;;;;;5051300;28;20573;-63
2023/11/02 10:12:17;;;;;;;4.80;2.50;;;13.70;99.90;;;;;;5052535;28;20420;-64
2023/11/02 10:14:43;;;;;;;4.13;2.30;;;13.80;99.90;;;;;;5024411;28;20437;-63
2023/11/02 10:17:11;;;;;;;3.23;2.60;;;13.90;99.90;;;;;;5044914;28;20433;-63
2023/11/02 10:19:37;;;;;;;3.17;1.97;;;13.90;99.90;;;;;;5043315;28;20168;-63
2023/11/02 10:22:05;;;;;;;2.60;1.53;;;13.70;99.90;;;;;;5055436;28;20416;-63
2023/11/02 10:24:34;;;;;;;4.10;1.87;;;13.70;99.90;;;;;;5055863;28;20418;-63
2023/11/02 10:27:03;;;;;;;5.60;2.07;;;13.70;99.90;;;;;;5074692;28;20431;-61
2023/11/02 10:29:29;;;;;;;2.17;1.80;;;13.60;99.90;;;;;;5055040;28;20800;-62
2023/11/02 10:31:56;;;;;;;1.90;1.70;;;13.70;99.90;;;;;;5071412;28;20504;-64
2023/11/02 10:34:25;;;;;;;2.33;2.13;;;13.80;99.90;;;;;;5061182;28;20881;-62
2023/11/02 10:36:52;;;;;;;1.50;1.40;;;13.90;99.90;;;;;;5054967;28;20483;-62
2023/11/02 10:39:18;;;;;;;3.57;1.60;;;14.10;99.90;;;;;;5049332;28;20418;-62
2023/11/02 10:41:59;;;;;;;1.83;1.47;;;14.10;99.90;;;;;;5040663;28;20788;-62
2023/11/02 10:44:28;;;;;;;1.67;1.57;;;14.00;99.90;;;;;;5050983;28;20865;-63
2023/11/02 10:46:58;;;;;;;2.20;1.50;;;13.90;99.90;;;;;;5046495;28;20458;-63
2023/11/02 10:49:28;;;;;;;1.97;1.77;;;14.00;99.90;;;;;;5051850;28;20483;-63
2023/11/02 10:51:56;;;;;;;3.63;1.87;;;14.10;99.90;;;;;;5049108;28;20842;-63
2023/11/02 10:54:48;;;;;;;2.43;1.70;;;14.00;99.90;;;;;;5046273;28;20555;-63
2023/11/02 10:57:16;;;;;;;2.27;1.80;;;14.00;99.90;;;;;;5054782;28;20460;-63
2023/11/02 10:59:43;;;;;;;6.73;3.13;;;14.00;99.90;;;;;;5072407;28;20427;-64
2023/11/02 11:02:11;;;;;;;5.30;1.57;;;14.10;99.90;;;;;;5054268;28;20426;-62
2023/11/02 11:04:40;;;;;;;2.50;1.60;;;14.00;99.90;;;;;;5049478;28;20868;-62
2023/11/02 11:07:07;;;;;;;2.13;1.80;;;14.00;99.90;;;;;;5038147;28;20879;-63
2023/11/02 11:09:35;;;;;;;1.70;1.60;;;14.00;99.90;;;;;;5074397;28;20503;-65
2023/11/02 11:12:02;;;;;;;2.83;2.10;;;14.00;99.90;;;;;;5073381;28;20501;-63
2023/11/02 11:14:29;;;;;;;7.63;1.60;;;14.00;99.90;;;;;;5053654;28;20414;-62
2023/11/02 11:17:02;;;;;;;1.70;1.50;;;13.90;99.90;;;;;;5053802;28;20520;-65
2023/11/02 11:19:30;;;;;;;2.63;1.97;;;13.90;99.90;;;;;;5053692;28;20932;-62
2023/11/02 11:22:01;;;;;;;2.53;1.40;;;13.90;99.90;;;;;;5044632;28;20927;-62
2023/11/02 11:24:32;;;;;;;5.77;1.37;;;13.90;99.90;;;;;;5053857;28;20410;-62
2023/11/02 11:26:59;;;;;;;4.27;2.20;;;14.00;99.90;;;;;;5063763;28;20453;-64
2023/11/02 11:29:35;;;;;;;2.37;1.63;;;14.10;99.90;;;;;;5056058;28;20451;-64
2023/11/02 11:32:03;;;;;;;1.77;1.60;;;14.20;99.90;;;;;;5053342;28;20492;-64
2023/11/02 11:34:54;;;;;;;1.30;1.20;;;14.20;99.90;;;;;;5064951;28;20427;-63
2023/11/02 11:37:47;;;;;;;2.93;1.90;;;14.10;99.90;;;;;;5046957;28;20988;-63
2023/11/02 11:40:24;;;;;;;3.70;1.97;;;14.00;99.90;;;;;;5051794;28;20464;-64
2023/11/02 11:43:13;;;;;;;3.90;1.67;;;14.10;99.90;;;;;;5053217;28;21145;-64
2023/11/02 11:45:51;;;;;;;2.53;1.57;;;14.00;99.90;;;;;;5048244;28;20788;-64
2023/11/02 11:48:40;;;;;;;1.40;1.30;;;14.00;99.90;;;;;;5052406;28;20421;-63
2023/11/02 11:51:31;;;;;;;5.30;1.70;;;14.00;99.90;;;;;;5042999;28;20440;-63
2023/11/02 11:54:14;;;;;;;1.37;1.27;;;14.00;99.90;;;;;;5047922;28;20507;-64
2023/11/02 11:56:42;;;;;;;3.37;1.50;;;14.10;99.90;;;;;;5046044;28;21253;-64
2023/11/02 11:59:09;;;;;;;1.60;1.13;;;14.20;99.90;;;;;;5021705;28;20481;-64
2023/11/02 12:01:36;;;;;;;2.33;1.10;;;14.30;99.90;;;;;;5042613;28;20519;-64
2023/11/02 12:04:02;;;;;;;3.73;1.63;;;14.40;99.90;;;;;;5060521;28;20455;-64
2023/11/02 12:06:41;;;;;;;2.90;1.50;;;14.40;99.90;;;;;;5046310;28;20628;-63
2023/11/02 12:09:12;;;;;;;1.97;1.77;;;14.40;99.90;;;;;;5052249;28;20539;-64
2023/11/02 12:11:41;;;;;;;2.33;1.50;;;14.50;99.90;;;;;;5037668;28;20426;-63
2023/11/02 12:14:20;;;;;;;4.43;1.90;;;14.50;99.90;;;;;;5049561;28;20470;-64
2023/11/02 12:16:47;;;;;;;1.73;1.43;;;14.60;99.90;;;;;;5035219;28;20465;-63
2023/11/02 12:19:13;;;;;;;1.47;1.37;;;14.60;99.90;;;;;;5033105;28;20459;-63
2023/11/02 12:21:40;;;;;;;2.20;1.70;;;14.50;99.90;;;;;;5036296;28;20439;-63
2023/11/02 12:24:10;;;;;;;5.73;3.40;;;14.40;99.90;;;;;;5043687;28;20425;-65
2023/11/02 12:26:36;;;;;;;2.23;1.70;;;14.30;99.90;;;;;;5032837;28;20500;-64
2023/11/02 12:29:08;;;;;;;1.73;1.40;;;14.40;99.90;;;;;;5046871;28;20449;-63
2023/11/02 12:31:35;;;;;;;4.33;1.70;;;14.30;99.90;;;;;;5033145;28;20516;-63
2023/11/02 12:34:03;;;;;;;4.50;1.87;;;14.40;99.90;;;;;;5052831;28;20961;-63
2023/11/02 12:36:29;;;;;;;2.50;1.70;;;14.40;99.90;;;;;;5054284;28;20532;-63
2023/11/02 12:38:56;;;;;;;3.03;2.00;;;14.40;99.90;;;;;;5051069;28;20920;-63
2023/11/02 12:41:33;;;;;;;5.23;2.10;;;14.40;99.90;;;;;;5048177;28;20563;-63
2023/11/02 12:44:04;;;;;;;2.40;2.20;;;14.40;99.90;;;;;;5050324;28;20426;-63
2023/11/02 12:46:34;;;;;;;2.50;1.80;;;14.40;99.90;;;;;;5058596;28;20437;-62
2023/11/02 12:49:29;;;;;;;1.50;1.40;;;14.40;99.90;;;;;;5049913;28;20421;-64
2023/11/02 12:52:00;;;;;;;3.47;1.60;;;14.30;99.90;;;;;;5012766;28;20442;-64
2023/11/02 12:54:31;;;;;;;1.83;1.40;;;14.30;99.90;;;;;;5050125;28;20790;-64
2023/11/02 12:57:05;;;;;;;3.50;2.60;;;14.30;99.90;;;;;;5045597;28;20451;-64
2023/11/02 12:59:42;;;;;;;2.80;1.60;;;14.30;99.90;;;;;;5022769;28;20948;-64
2023/11/02 13:02:11;;;;;;;3.40;2.10;;;14.40;99.90;;;;;;5041988;28;20821;-66
2023/11/02 13:04:55;;;;;;;3.53;2.13;;;14.40;99.90;;;;;;5050970;28;20449;-64
2023/11/02 13:07:22;;;;;;;4.30;1.97;;;14.40;99.90;;;;;;5041134;28;20465;-64